createdAt,value
2022-10-05T00:01:30.594Z,100252.08
2022-10-05T00:04:33.617Z,100243.85
2022-10-05T00:07:36.399Z,100238.20
2022-10-05T00:10:41.583Z,100233.08
2022-10-05T00:13:44.458Z,100231.27
2022-10-05T00:16:48.413Z,100232.02
2022-10-05T00:19:54.195Z,100231.02
2022-10-05T00:23:01.092Z,100228.35
2022-10-05T00:26:14.707Z,100228.00
2022-10-05T00:29:23.883Z,100222.44
2022-10-05T00:32:27.263Z,100216.77
2022-10-05T00:35:30.965Z,100215.41
2022-10-05T00:38:33.767Z,100211.01
2022-10-05T00:42:00.943Z,100209.96
2022-10-05T00:45:09.252Z,100209.28
2022-10-05T00:48:39.289Z,100205.89
2022-10-05T00:51:50.148Z,100205.71
2022-10-05T00:55:07.961Z,100207.98
2022-10-05T00:58:29.791Z,100209.93
2022-10-05T01:01:40.191Z,100203.11
2022-10-05T01:04:54.469Z,100200.13
2022-10-05T01:08:16.371Z,100196.08
2022-10-05T01:11:38.808Z,100192.45
2022-10-05T01:14:56.494Z,100191.57
2022-10-05T01:18:20.543Z,100192.32
2022-10-05T01:21:26.223Z,100191.91
2022-10-05T01:25:02.936Z,100187.77
2022-10-05T01:28:16.436Z,100192.53
2022-10-05T01:31:26.594Z,100198.80
2022-10-05T01:35:14.560Z,100192.92
2022-10-05T01:38:24.196Z,100186.52
2022-10-05T01:41:52.903Z,100183.59
2022-10-05T01:45:01.543Z,100173.45
2022-10-05T01:48:04.314Z,100171.80
2022-10-05T01:51:30.994Z,100166.73
2022-10-05T01:55:03.477Z,100158.70
2022-10-05T01:58:08.673Z,100167.15
2022-10-05T02:01:36.514Z,100167.84
2022-10-05T02:05:01.341Z,100183.27
2022-10-05T02:08:09.927Z,100186.48
2022-10-05T02:11:17.718Z,100186.72
2022-10-05T02:14:25.443Z,100182.55
2022-10-05T02:17:38.911Z,100182.43
2022-10-05T02:20:43.002Z,100185.27
2022-10-05T02:23:48.334Z,100181.48
2022-10-05T02:26:53.508Z,100171.76
2022-10-05T02:30:01.942Z,100177.14
2022-10-05T02:33:10.505Z,100175.94
2022-10-05T02:36:18.023Z,100184.90
2022-10-05T02:39:35.353Z,100176.30
2022-10-05T02:42:43.848Z,100180.14
2022-10-05T02:46:11.880Z,100186.21
2022-10-05T02:49:15.589Z,100190.90
2022-10-05T02:52:34.077Z,100182.21
2022-10-05T02:55:51.153Z,100168.42
2022-10-05T02:59:06.197Z,100160.30
2022-10-05T03:02:14.753Z,100166.16
2022-10-05T03:05:24.009Z,100160.08
2022-10-05T03:08:45.043Z,100162.91
2022-10-05T03:12:05.182Z,100167.98
2022-10-05T03:15:21.588Z,100168.19
2022-10-05T03:19:06.864Z,100174.58
2022-10-05T03:22:31.762Z,100176.43
2022-10-05T03:25:59.484Z,100168.84
2022-10-05T03:29:08.266Z,100164.85
2022-10-05T03:32:32.327Z,100166.95
2022-10-05T03:35:59.008Z,100156.73
2022-10-05T03:39:26.966Z,100153.66
2022-10-05T03:43:00.181Z,100163.20
2022-10-05T03:46:37.845Z,100163.69
2022-10-05T03:49:59.548Z,100155.48
2022-10-05T03:53:04.153Z,100152.59
2022-10-05T03:56:20.375Z,100157.88
2022-10-05T03:59:42.249Z,100156.98
2022-10-05T04:02:55.998Z,100151.98
2022-10-05T04:06:07.412Z,100160.15
2022-10-05T04:09:18.469Z,100164.00
2022-10-05T04:12:44.756Z,100162.81
2022-10-05T04:16:13.995Z,100160.32
2022-10-05T04:19:35.301Z,100160.04
2022-10-05T04:22:53.627Z,100156.30
2022-10-05T04:26:07.854Z,100154.05
2022-10-05T04:29:31.715Z,100149.40
2022-10-05T04:32:55.519Z,100148.54
2022-10-05T04:36:11.405Z,100150.09
2022-10-05T04:39:28.303Z,100155.82
2022-10-05T04:42:38.160Z,100157.20
2022-10-05T04:45:59.955Z,100151.38
2022-10-05T04:49:09.435Z,100148.76
2022-10-05T04:53:04.384Z,100144.45
2022-10-05T04:56:25.658Z,100150.13
2022-10-05T04:59:51.563Z,100142.25
2022-10-05T05:03:25.544Z,100145.36
2022-10-05T05:06:50.522Z,100140.66
2022-10-05T05:10:03.138Z,100141.55
2022-10-05T05:13:44.625Z,100141.29
2022-10-05T05:17:04.545Z,100142.49
2022-10-05T05:20:46.617Z,100140.55
2022-10-05T05:24:06.893Z,100142.49
2022-10-05T05:27:47.669Z,100146.95
2022-10-05T05:31:00.623Z,100146.80
2022-10-05T05:34:46.763Z,100140.14
2022-10-05T05:38:05.968Z,100143.13
2022-10-05T05:41:12.096Z,100144.73
2022-10-05T05:44:18.180Z,100146.36
2022-10-05T05:47:35.499Z,100141.49
2022-10-05T05:50:55.147Z,100142.39
2022-10-05T05:54:20.737Z,100147.35
2022-10-05T05:57:30.126Z,100152.35
2022-10-05T06:00:41.263Z,100149.64
2022-10-05T06:03:49.115Z,100148.77
2022-10-05T06:06:54.335Z,100152.90
2022-10-05T06:10:04.403Z,100151.08
2022-10-05T06:13:24.385Z,100154.02
2022-10-05T06:16:33.845Z,100150.49
2022-10-05T06:19:40.092Z,100155.56
2022-10-05T06:22:47.442Z,100160.40
2022-10-05T06:26:17.665Z,100158.39
2022-10-05T06:29:25.744Z,100155.17
2022-10-05T06:32:50.359Z,100154.52
2022-10-05T06:36:32.942Z,100149.34
2022-10-05T06:39:44.796Z,100145.29
2022-10-05T06:43:00.535Z,100142.80
2022-10-05T06:46:26.343Z,100147.81
2022-10-05T06:49:52.049Z,100133.46
2022-10-05T06:53:32.372Z,100140.98
2022-10-05T06:56:47.960Z,100144.86
2022-10-05T07:00:01.996Z,100146.71
2022-10-05T07:03:32.453Z,100150.11
2022-10-05T07:06:42.015Z,100153.69
2022-10-05T07:10:23.459Z,100154.59
2022-10-05T07:13:57.567Z,100154.40
2022-10-05T07:17:09.572Z,100154.52
2022-10-05T07:20:38.191Z,100151.81
2022-10-05T07:23:46.135Z,100149.23
2022-10-05T07:27:12.279Z,100152.83
2022-10-05T07:30:15.405Z,100152.83
2022-10-05T07:33:24.281Z,100154.40
2022-10-05T07:36:59.150Z,100148.79
2022-10-05T07:40:21.006Z,100148.77
2022-10-05T07:43:57.916Z,100150.83
2022-10-05T07:47:30.924Z,100152.54
2022-10-05T07:50:43.121Z,100148.70
2022-10-05T07:53:59.360Z,100139.45
2022-10-05T07:57:33.355Z,100139.90
2022-10-05T08:01:00.941Z,100143.42
2022-10-05T08:04:24.859Z,100144.52
2022-10-05T08:07:30.299Z,100144.20
2022-10-05T08:11:07.047Z,100154.91
2022-10-05T08:14:28.099Z,100151.13
2022-10-05T08:17:59.276Z,100145.55
2022-10-05T08:21:05.877Z,100139.31
2022-10-05T08:24:36.697Z,100151.84
2022-10-05T08:27:50.157Z,100148.60
2022-10-05T08:30:55.742Z,100142.95
2022-10-05T08:34:20.382Z,100149.61
2022-10-05T08:37:30.834Z,100152.34
2022-10-05T08:40:42.998Z,100158.42
2022-10-05T08:44:12.903Z,100157.55
2022-10-05T08:47:33.890Z,100151.31
2022-10-05T08:50:55.501Z,100151.97
2022-10-05T08:54:36.863Z,100148.39
2022-10-05T08:57:51.625Z,100153.50
2022-10-05T09:00:58.077Z,100151.93
2022-10-05T09:04:16.953Z,100142.11
2022-10-05T09:07:40.073Z,100147.14
2022-10-05T09:11:00.949Z,100129.91
2022-10-05T09:14:06.915Z,100128.02
2022-10-05T09:17:46.298Z,100123.48
2022-10-05T09:20:55.589Z,100118.20
2022-10-05T09:24:19.397Z,100119.52
2022-10-05T09:27:53.942Z,100131.63
2022-10-05T09:31:07.683Z,100132.48
2022-10-05T09:34:37.867Z,100123.50
2022-10-05T09:37:53.665Z,100121.23
2022-10-05T09:41:16.860Z,100115.26
2022-10-05T09:44:41.533Z,100114.16
2022-10-05T09:48:03.287Z,100109.39
2022-10-05T09:51:15.049Z,100109.73
2022-10-05T09:54:38.151Z,100112.91
2022-10-05T09:58:03.645Z,100111.48
2022-10-05T10:01:34.318Z,100106.39
2022-10-05T10:05:05.835Z,100104.11
2022-10-05T10:08:32.452Z,100095.89
2022-10-05T10:11:53.155Z,100085.88
2022-10-05T10:15:11.188Z,100090.11
2022-10-05T10:18:46.564Z,100090.78
2022-10-05T10:22:08.121Z,100084.02
2022-10-05T10:25:40.833Z,100083.55
2022-10-05T10:29:21.310Z,100069.96
2022-10-05T10:32:48.999Z,100065.10
2022-10-05T10:36:03.102Z,100071.14
2022-10-05T10:39:24.352Z,100075.04
2022-10-05T10:42:37.741Z,100071.19
2022-10-05T10:45:56.867Z,100069.14
2022-10-05T10:49:16.257Z,100068.60
2022-10-05T10:52:34.417Z,100068.96
2022-10-05T10:55:46.015Z,100061.05
2022-10-05T10:58:58.251Z,100062.52
2022-10-05T11:02:27.297Z,100066.25
2022-10-05T11:05:34.770Z,100061.99
2022-10-05T11:09:09.519Z,100057.91
2022-10-05T11:12:49.979Z,100050.60
2022-10-05T11:16:41.913Z,100055.23
2022-10-05T11:20:15.295Z,100058.04
2022-10-05T11:23:38.952Z,100055.98
2022-10-05T11:27:16.306Z,100050.69
2022-10-05T11:30:51.239Z,100046.58
2022-10-05T11:34:18.975Z,100054.98
2022-10-05T11:37:56.041Z,100049.48
2022-10-05T11:41:20.010Z,100045.05
2022-10-05T11:44:38.541Z,100041.79
2022-10-05T11:48:20.707Z,100033.33
2022-10-05T11:51:34.386Z,100029.44
2022-10-05T11:55:09.733Z,100030.59
2022-10-05T11:58:26.505Z,100028.10
2022-10-05T12:01:39.746Z,100025.99
2022-10-05T12:04:54.600Z,100022.20
2022-10-05T12:08:10.860Z,100020.02
2022-10-05T12:11:34.843Z,100017.70
2022-10-05T12:14:59.293Z,100012.65
2022-10-05T12:18:25.726Z,100011.83
2022-10-05T12:21:50.283Z,100013.56
2022-10-05T12:25:22.403Z,100007.91
2022-10-05T12:28:38.024Z,100011.80
2022-10-05T12:31:52.858Z,100011.30
2022-10-05T12:35:11.976Z,100004.98
2022-10-05T12:38:30.726Z,100003.25
2022-10-05T12:41:56.589Z,100005.48
2022-10-05T12:45:29.916Z,99999.87
2022-10-05T12:48:53.264Z,99997.30
2022-10-05T12:52:00.436Z,99995.75
2022-10-05T12:55:03.321Z,99996.33
2022-10-05T12:58:24.123Z,99992.46
2022-10-05T13:01:39.394Z,99986.97
2022-10-05T13:05:03.688Z,99985.36
2022-10-05T13:08:12.977Z,99994.38
2022-10-05T13:11:27.255Z,99989.73
2022-10-05T13:15:03.778Z,99986.30
2022-10-05T13:18:28.101Z,99981.96
2022-10-05T13:21:56.935Z,99976.67
2022-10-05T13:25:39.176Z,99974.59
2022-10-05T13:28:59.154Z,99974.12
2022-10-05T13:32:15.344Z,99969.12
2022-10-05T13:35:24.208Z,99963.67
2022-10-05T13:39:01.589Z,99958.04
2022-10-05T13:42:10.342Z,99955.83
2022-10-05T13:45:20.229Z,99946.23
2022-10-05T13:48:46.555Z,99943.77
2022-10-05T13:51:59.197Z,99935.59
2022-10-05T13:55:15.697Z,99936.87
2022-10-05T13:58:45.230Z,99934.00
2022-10-05T14:02:00.429Z,99929.08
2022-10-05T14:05:15.311Z,99927.50
2022-10-05T14:08:18.848Z,99923.07
2022-10-05T14:11:33.558Z,99924.14
2022-10-05T14:14:46.885Z,99918.00
2022-10-05T14:17:52.902Z,99916.15
2022-10-05T14:21:03.445Z,99919.73
2022-10-05T14:24:47.537Z,99916.41
2022-10-05T14:28:01.291Z,99919.52
2022-10-05T14:31:27.707Z,99918.08
2022-10-05T14:34:39.728Z,99913.34
2022-10-05T14:37:59.001Z,99914.70
2022-10-05T14:41:20.395Z,99916.92
2022-10-05T14:48:00.478Z,99922.95
2022-10-05T14:51:11.830Z,99923.61
2022-10-05T14:54:41.566Z,99921.73
2022-10-05T14:58:03.724Z,99915.04
2022-10-05T15:01:31.659Z,99913.23
2022-10-05T15:04:43.139Z,99915.51
2022-10-05T15:07:49.500Z,99910.35
2022-10-05T15:10:56.020Z,99905.51
2022-10-05T15:14:00.104Z,99902.89
2022-10-05T15:17:11.620Z,99900.66
2022-10-05T15:20:25.869Z,99902.32
2022-10-05T15:23:49.284Z,99899.42
2022-10-05T15:26:56.708Z,99897.67
2022-10-05T15:30:18.285Z,99894.20
2022-10-05T15:33:30.914Z,99891.00
2022-10-05T15:36:48.928Z,99889.59
2022-10-05T15:40:14.958Z,99888.89
2022-10-05T15:43:21.152Z,99890.16
2022-10-05T15:46:36.178Z,99886.13
2022-10-05T15:49:59.966Z,99885.00
2022-10-05T15:53:16.035Z,99887.21
2022-10-05T15:56:36.741Z,99886.45
2022-10-05T16:00:00.770Z,99890.30
2022-10-05T16:03:27.715Z,99888.12
2022-10-05T16:07:01.873Z,99894.84
2022-10-05T16:10:19.207Z,99893.62
2022-10-05T16:13:38.664Z,99886.42
2022-10-05T16:17:02.676Z,99884.30
2022-10-05T16:20:25.321Z,99889.18
2022-10-05T16:24:17.001Z,99888.88
2022-10-05T16:27:48.535Z,99891.13
2022-10-05T16:31:21.142Z,99893.27
2022-10-05T16:34:39.985Z,99888.33
2022-10-05T16:38:33.283Z,99896.13
2022-10-05T16:41:49.323Z,99895.75
2022-10-05T16:45:29.909Z,99893.36
2022-10-05T16:48:56.573Z,99891.10
2022-10-05T16:52:07.573Z,99892.50
2022-10-05T16:55:23.514Z,99887.98
2022-10-05T16:58:34.635Z,99890.95
2022-10-05T17:02:15.362Z,99894.81
2022-10-05T17:05:47.293Z,99893.93
2022-10-05T17:09:12.155Z,99897.34
2022-10-05T17:12:18.029Z,99899.59
2022-10-05T17:15:53.784Z,99894.09
2022-10-05T17:19:32.935Z,99897.20
2022-10-05T17:22:52.852Z,99901.00
2022-10-05T17:26:12.639Z,99894.11
2022-10-05T17:29:52.503Z,99897.75
2022-10-05T17:33:00.369Z,99894.73
2022-10-05T17:36:04.924Z,99895.23
2022-10-05T17:39:21.972Z,99893.79
2022-10-05T17:42:46.490Z,99896.70
2022-10-05T17:45:53.311Z,99893.00
2022-10-05T17:48:56.261Z,99886.39
2022-10-05T17:52:20.583Z,99880.27
2022-10-05T17:55:46.155Z,99880.15
2022-10-05T17:58:54.766Z,99880.20
2022-10-05T18:02:23.368Z,99874.82
2022-10-05T18:05:29.428Z,99871.77
2022-10-05T18:08:38.906Z,99870.48
2022-10-05T18:11:44.081Z,99874.42
2022-10-05T18:15:00.004Z,99879.39
2022-10-05T18:18:35.078Z,99877.19
2022-10-05T18:21:40.215Z,99878.39
2022-10-05T18:25:14.334Z,99878.05
2022-10-05T18:28:43.421Z,99879.92
2022-10-05T18:32:03.920Z,99877.50
2022-10-05T18:35:30.592Z,99876.61
2022-10-05T18:38:54.043Z,99873.20
2022-10-05T18:42:05.962Z,99874.74
2022-10-05T18:45:49.451Z,99871.91
2022-10-05T18:49:21.277Z,99873.47
2022-10-05T18:52:46.602Z,99863.75
2022-10-05T18:56:17.639Z,99864.80
2022-10-05T18:59:25.368Z,99869.73
2022-10-05T19:02:45.775Z,99864.45
2022-10-05T19:06:13.054Z,99871.84
2022-10-05T19:09:33.660Z,99873.16
2022-10-05T19:13:21.186Z,99876.76
2022-10-05T19:16:47.782Z,99878.53
2022-10-05T19:20:34.798Z,99872.44
2022-10-05T19:24:03.314Z,99873.30
2022-10-05T19:27:20.604Z,99879.23
2022-10-05T19:30:50.721Z,99875.75
2022-10-05T19:34:19.869Z,99880.02
2022-10-05T19:37:41.159Z,99874.96
2022-10-05T19:41:09.932Z,99875.56
2022-10-05T19:44:18.997Z,99886.46
2022-10-05T19:47:55.248Z,99894.25
2022-10-05T19:51:06.465Z,99901.19
2022-10-05T19:54:25.816Z,99900.20
2022-10-05T19:57:36.297Z,99897.01
2022-10-05T20:00:40.301Z,99905.87
2022-10-05T20:03:49.085Z,99908.73
2022-10-05T20:06:53.856Z,99908.09
2022-10-05T20:10:15.381Z,99919.52
2022-10-05T20:13:23.632Z,99918.13
2022-10-05T20:16:55.511Z,99920.42
2022-10-05T20:20:23.567Z,99927.06
2022-10-05T20:23:29.616Z,99932.59
2022-10-05T20:27:06.230Z,99933.95
2022-10-05T20:30:13.178Z,99933.27
2022-10-05T20:33:16.146Z,99939.09
2022-10-05T20:36:19.116Z,99942.00
2022-10-05T20:39:22.103Z,99937.94
2022-10-05T20:42:26.971Z,99943.77
2022-10-05T20:45:30.043Z,99946.86
2022-10-05T20:48:33.357Z,99950.46
2022-10-05T20:51:40.491Z,99950.35
2022-10-05T20:54:43.426Z,99948.16
2022-10-05T20:57:47.520Z,99962.70
2022-10-05T21:01:09.068Z,99963.45
2022-10-05T21:04:11.921Z,99963.08
2022-10-05T21:07:16.377Z,99960.65
2022-10-05T21:10:19.191Z,99962.61
2022-10-05T21:13:21.992Z,99965.77
2022-10-05T21:16:25.101Z,99965.64
2022-10-05T21:19:29.386Z,99971.60
2022-10-05T21:22:32.172Z,99968.30
2022-10-05T21:25:35.238Z,99976.21
2022-10-05T21:28:39.640Z,99976.61
2022-10-05T21:31:42.920Z,99980.67
2022-10-05T21:34:45.782Z,99983.95
2022-10-05T21:37:48.677Z,99985.97
2022-10-05T21:40:51.691Z,99991.65
2022-10-05T21:43:54.821Z,99992.69
2022-10-05T21:46:57.886Z,99997.39
2022-10-05T21:50:03.739Z,99999.97
2022-10-05T21:53:09.186Z,100002.87
2022-10-05T21:56:17.098Z,100014.11
2022-10-05T21:59:24.173Z,100005.73
2022-10-05T22:02:27.117Z,100015.69
2022-10-05T22:05:32.062Z,100021.46
2022-10-05T22:08:35.730Z,100015.37
2022-10-05T22:11:38.787Z,100015.80
2022-10-05T22:14:41.915Z,100016.94
2022-10-05T22:17:46.283Z,100017.99
2022-10-05T22:20:49.849Z,100021.53
2022-10-05T22:23:52.852Z,100027.69
2022-10-05T22:26:55.986Z,100026.59
2022-10-05T22:29:59.313Z,100021.70
2022-10-05T22:33:02.180Z,100030.14
2022-10-05T22:36:06.400Z,100029.06
2022-10-05T22:39:09.234Z,100036.84
2022-10-05T22:42:12.294Z,100031.59
2022-10-05T22:45:15.286Z,100033.27
2022-10-05T22:48:18.980Z,100036.44
2022-10-05T22:51:21.874Z,100044.16
2022-10-05T22:54:29.325Z,100045.84
2022-10-05T22:57:40.157Z,100050.89
2022-10-05T23:00:59.055Z,100051.70
2022-10-05T23:04:02.679Z,100049.46
2022-10-05T23:07:06.890Z,100051.73
2022-10-05T23:10:12.163Z,100058.02
2022-10-05T23:13:15.453Z,100058.34
2022-10-05T23:16:21.647Z,100061.85
2022-10-05T23:19:24.603Z,100066.93
2022-10-05T23:22:27.509Z,100059.43
2022-10-05T23:25:31.806Z,100063.08
2022-10-05T23:28:34.833Z,100068.75
2022-10-05T23:31:37.918Z,100063.58
2022-10-05T23:34:40.756Z,100065.98
2022-10-05T23:37:45.023Z,100065.18
2022-10-05T23:40:47.900Z,100066.30
2022-10-05T23:43:50.814Z,100075.83
2022-10-05T23:46:54.213Z,100082.48
2022-10-05T23:49:57.152Z,100078.04
2022-10-05T23:52:59.976Z,100085.34
2022-10-05T23:56:04.017Z,100084.54
2022-10-05T23:59:06.921Z,100086.29
